createdAt,value
2023-04-09T00:00:25.369Z,462.00
2023-04-09T00:01:20.596Z,453.00
2023-04-09T00:02:15.848Z,467.00
2023-04-09T00:03:11.109Z,468.00
2023-04-09T00:04:06.460Z,462.00
2023-04-09T00:05:01.614Z,462.00
2023-04-09T00:05:56.704Z,458.00
2023-04-09T00:06:51.934Z,460.00
2023-04-09T00:07:47.148Z,447.00
2023-04-09T00:08:42.535Z,459.00
2023-04-09T00:09:37.671Z,460.00
2023-04-09T00:10:32.893Z,468.00
2023-04-09T00:11:28.286Z,460.00
2023-04-09T00:12:23.401Z,465.00
2023-04-09T00:13:28.304Z,462.00
2023-04-09T00:14:14.817Z,458.00
2023-04-09T00:15:13.021Z,463.00
2023-04-09T00:16:04.837Z,457.00
2023-04-09T00:16:58.879Z,454.00
2023-04-09T00:17:55.346Z,459.00
2023-04-09T00:18:50.889Z,461.00
2023-04-09T00:19:45.458Z,463.00
2023-04-09T00:20:40.560Z,462.00
2023-04-09T00:21:35.641Z,457.00
2023-04-09T00:22:30.790Z,459.00
2023-04-09T00:23:25.749Z,455.00
2023-04-09T00:24:21.053Z,457.00
2023-04-09T00:25:15.876Z,461.00
2023-04-09T00:26:10.958Z,459.00
2023-04-09T00:27:05.920Z,460.00
2023-04-09T00:28:01.066Z,458.00
2023-04-09T00:28:56.288Z,461.00
2023-04-09T00:29:51.284Z,455.00
2023-04-09T00:30:46.509Z,460.00
2023-04-09T00:31:41.812Z,457.00
2023-04-09T00:32:37.581Z,459.00
2023-04-09T00:33:32.997Z,458.00
2023-04-09T00:34:27.970Z,464.00
2023-04-09T00:35:24.482Z,460.00
2023-04-09T00:36:19.711Z,463.00
2023-04-09T00:37:15.529Z,469.00
2023-04-09T00:38:10.748Z,463.00
2023-04-09T00:39:05.932Z,467.00
2023-04-09T00:40:01.685Z,466.00
2023-04-09T00:40:56.956Z,462.00
2023-04-09T00:41:52.741Z,465.00
2023-04-09T00:42:48.007Z,469.00
2023-04-09T00:43:43.408Z,464.00
2023-04-09T00:44:39.066Z,468.00
2023-04-09T00:45:34.341Z,465.00
2023-04-09T00:46:29.592Z,461.00
2023-04-09T00:47:25.962Z,457.00
2023-04-09T00:48:21.209Z,467.00
2023-04-09T00:49:16.971Z,463.00
2023-04-09T00:50:12.233Z,457.00
2023-04-09T00:51:07.454Z,461.00
2023-04-09T00:52:03.290Z,456.00
2023-04-09T00:52:58.701Z,460.00
2023-04-09T00:53:54.497Z,460.00
2023-04-09T00:54:49.581Z,464.00
2023-04-09T00:55:44.979Z,458.00
2023-04-09T00:56:40.783Z,459.00
2023-04-09T00:57:36.057Z,462.00
2023-04-09T00:58:31.548Z,461.00
2023-04-09T00:59:27.527Z,466.00
2023-04-09T01:00:22.878Z,465.00
2023-04-09T01:01:18.603Z,457.00
2023-04-09T01:02:13.702Z,460.00
2023-04-09T01:03:09.142Z,464.00
2023-04-09T01:04:04.961Z,457.00
2023-04-09T01:05:00.147Z,455.00
2023-04-09T01:05:55.960Z,459.00
2023-04-09T01:06:51.324Z,456.00
2023-04-09T01:07:46.567Z,454.00
2023-04-09T01:08:42.406Z,456.00
2023-04-09T01:09:37.494Z,459.00
2023-04-09T01:10:32.766Z,449.00
2023-04-09T01:11:28.949Z,456.00
2023-04-09T01:12:24.228Z,457.00
2023-04-09T01:13:20.014Z,452.00
2023-04-09T01:14:15.415Z,451.00
2023-04-09T01:15:10.415Z,449.00
2023-04-09T01:16:06.250Z,449.00
2023-04-09T01:17:01.441Z,458.00
2023-04-09T01:17:57.305Z,459.00
2023-04-09T01:18:52.884Z,458.00
2023-04-09T01:19:47.763Z,456.00
2023-04-09T01:20:43.515Z,463.00
2023-04-09T01:21:38.793Z,460.00
2023-04-09T01:22:34.001Z,462.00
2023-04-09T01:23:30.369Z,458.00
2023-04-09T01:24:25.770Z,459.00
2023-04-09T01:25:21.477Z,455.00
2023-04-09T01:26:16.668Z,455.00
2023-04-09T01:27:11.943Z,448.00
2023-04-09T01:28:07.740Z,459.00
2023-04-09T01:29:03.188Z,462.00
2023-04-09T01:29:58.946Z,461.00
2023-04-09T01:30:54.111Z,457.00
2023-04-09T01:31:49.371Z,459.00
2023-04-09T01:32:44.660Z,457.00
2023-04-09T01:33:40.005Z,467.00
2023-04-09T01:34:36.342Z,464.00
2023-04-09T01:35:31.629Z,457.00
2023-04-09T01:36:27.407Z,461.00
2023-04-09T01:37:22.615Z,459.00
2023-04-09T01:38:17.887Z,457.00
2023-04-09T01:39:13.837Z,461.00
2023-04-09T01:40:08.994Z,458.00
2023-04-09T01:41:04.226Z,461.00
2023-04-09T01:42:00.617Z,465.00
2023-04-09T01:42:55.835Z,456.00
2023-04-09T01:43:51.667Z,463.00
2023-04-09T01:44:46.782Z,464.00
2023-04-09T01:45:42.041Z,455.00
2023-04-09T01:46:37.857Z,462.00
2023-04-09T01:47:33.143Z,458.00
2023-04-09T01:48:29.054Z,451.00
2023-04-09T01:49:24.349Z,458.00
2023-04-09T01:50:19.280Z,459.00
2023-04-09T01:51:14.537Z,461.00
2023-04-09T01:52:09.763Z,465.00
2023-04-09T01:53:05.305Z,453.00
2023-04-09T01:54:00.600Z,463.00
2023-04-09T01:54:55.713Z,460.00
2023-04-09T01:55:51.005Z,467.00
2023-04-09T01:56:47.317Z,461.00
2023-04-09T01:57:42.543Z,459.00
2023-04-09T01:58:37.688Z,461.00
2023-04-09T01:59:37.305Z,458.00
2023-04-09T02:00:32.395Z,460.00
2023-04-09T02:01:27.667Z,459.00
2023-04-09T02:02:23.069Z,463.00
2023-04-09T02:03:18.049Z,460.00
2023-04-09T02:04:13.116Z,463.00
2023-04-09T02:05:08.128Z,459.00
2023-04-09T02:06:03.215Z,462.00
2023-04-09T02:06:58.232Z,459.00
2023-04-09T02:07:53.287Z,461.00
2023-04-09T02:08:48.426Z,463.00
2023-04-09T02:09:43.559Z,465.00
2023-04-09T02:10:38.535Z,461.00
2023-04-09T02:11:33.525Z,469.00
2023-04-09T02:12:28.736Z,465.00
2023-04-09T02:13:23.944Z,460.00
2023-04-09T02:14:19.060Z,467.00
2023-04-09T02:15:14.210Z,462.00
2023-04-09T02:16:09.221Z,460.00
2023-04-09T02:17:04.150Z,463.00
2023-04-09T02:17:59.318Z,463.00
2023-04-09T02:18:54.493Z,465.00
2023-04-09T02:19:49.367Z,464.00
2023-04-09T02:20:44.309Z,461.00
2023-04-09T02:21:39.338Z,463.00
2023-04-09T02:22:34.330Z,467.00
2023-04-09T02:23:30.815Z,463.00
2023-04-09T02:24:25.772Z,462.00
2023-04-09T02:25:20.960Z,456.00
2023-04-09T02:26:15.803Z,458.00
2023-04-09T02:27:10.946Z,463.00
2023-04-09T02:28:05.911Z,464.00
2023-04-09T02:29:01.049Z,457.00
2023-04-09T02:29:56.041Z,462.00
2023-04-09T02:30:51.096Z,458.00
2023-04-09T02:31:46.033Z,461.00
2023-04-09T02:32:41.115Z,462.00
2023-04-09T02:33:36.191Z,463.00
2023-04-09T02:34:32.207Z,463.00
2023-04-09T02:35:27.147Z,463.00
2023-04-09T02:36:22.531Z,457.00
2023-04-09T02:37:18.202Z,466.00
2023-04-09T02:38:13.486Z,464.00
2023-04-09T02:39:09.279Z,462.00
2023-04-09T02:40:04.679Z,461.00
2023-04-09T02:40:59.935Z,467.00
2023-04-09T02:41:55.629Z,457.00
2023-04-09T02:42:50.862Z,465.00
2023-04-09T02:43:46.134Z,464.00
2023-04-09T02:44:42.489Z,467.00
2023-04-09T02:45:37.681Z,471.00
2023-04-09T02:46:33.573Z,465.00
2023-04-09T02:47:28.694Z,464.00
2023-04-09T02:48:23.771Z,469.00
2023-04-09T02:49:19.788Z,465.00
2023-04-09T02:50:14.790Z,461.00
2023-04-09T02:51:10.585Z,466.00
2023-04-09T02:52:05.776Z,467.00
2023-04-09T02:53:01.080Z,471.00
2023-04-09T02:53:57.030Z,466.00
2023-04-09T02:54:52.173Z,470.00
2023-04-09T02:55:47.362Z,470.00
2023-04-09T02:56:43.730Z,467.00
2023-04-09T02:57:38.956Z,466.00
2023-04-09T02:58:34.770Z,474.00
2023-04-09T02:59:30.176Z,473.00
2023-04-09T03:00:25.311Z,474.00
2023-04-09T03:01:21.163Z,473.00
2023-04-09T03:02:16.479Z,465.00
2023-04-09T03:03:12.486Z,468.00
2023-04-09T03:04:07.672Z,466.00
2023-04-09T03:05:02.663Z,465.00
2023-04-09T03:05:58.510Z,472.00
2023-04-09T03:06:53.748Z,471.00
2023-04-09T03:07:49.115Z,464.00
2023-04-09T03:08:45.241Z,468.00
2023-04-09T03:09:40.658Z,470.00
2023-04-09T03:10:36.320Z,473.00
2023-04-09T03:11:31.561Z,469.00
2023-04-09T03:12:26.917Z,469.00
2023-04-09T03:13:22.624Z,467.00
2023-04-09T03:14:17.896Z,466.00
2023-04-09T03:15:13.726Z,470.00
2023-04-09T03:16:08.949Z,469.00
2023-04-09T03:17:04.348Z,472.00
2023-04-09T03:18:00.062Z,466.00
2023-04-09T03:18:55.315Z,464.00
2023-04-09T03:19:50.399Z,469.00
2023-04-09T03:20:46.880Z,481.00
2023-04-09T03:21:42.132Z,469.00
2023-04-09T03:22:37.365Z,469.00
2023-04-09T03:23:32.591Z,472.00
2023-04-09T03:24:28.614Z,462.00
2023-04-09T03:25:23.602Z,458.00
2023-04-09T03:26:19.419Z,460.00
2023-04-09T03:27:14.598Z,468.00
2023-04-09T03:28:09.987Z,461.00
2023-04-09T03:29:05.852Z,462.00
2023-04-09T03:30:00.956Z,462.00
2023-04-09T03:30:56.094Z,463.00
2023-04-09T03:31:52.547Z,462.00
2023-04-09T03:32:47.840Z,455.00
2023-04-09T03:33:43.805Z,462.00
2023-04-09T03:34:38.721Z,460.00
2023-04-09T03:35:34.058Z,455.00
2023-04-09T03:36:29.812Z,452.00
2023-04-09T03:37:25.111Z,457.00
2023-04-09T03:38:20.904Z,452.00
2023-04-09T03:39:16.303Z,452.00
2023-04-09T03:40:11.250Z,455.00
2023-04-09T03:41:06.500Z,455.00
2023-04-09T03:42:01.971Z,458.00
2023-04-09T03:42:57.028Z,452.00
2023-04-09T03:43:52.416Z,445.00
2023-04-09T03:44:48.120Z,449.00
2023-04-09T03:45:43.334Z,449.00
2023-04-09T03:46:38.816Z,438.00
2023-04-09T03:47:34.345Z,443.00
2023-04-09T03:48:29.754Z,445.00
2023-04-09T03:49:24.756Z,452.00
2023-04-09T03:50:19.999Z,451.00
2023-04-09T03:51:14.952Z,462.00
2023-04-09T03:52:10.094Z,456.00
2023-04-09T03:53:05.074Z,462.00
2023-04-09T03:54:00.351Z,463.00
2023-04-09T03:54:55.332Z,460.00
2023-04-09T03:55:50.602Z,463.00
2023-04-09T03:56:45.564Z,461.00
2023-04-09T03:57:40.678Z,459.00
2023-04-09T03:58:35.770Z,456.00
2023-04-09T03:59:30.763Z,464.00
2023-04-09T04:00:25.720Z,462.00
2023-04-09T04:01:20.831Z,463.00
2023-04-09T04:02:15.855Z,460.00
2023-04-09T04:03:11.161Z,463.00
2023-04-09T04:04:06.098Z,459.00
2023-04-09T04:05:01.033Z,456.00
2023-04-09T04:05:56.101Z,454.00
2023-04-09T04:06:55.119Z,458.00
2023-04-09T04:07:50.199Z,455.00
2023-04-09T04:08:45.434Z,455.00
2023-04-09T04:09:40.249Z,461.00
2023-04-09T04:10:35.517Z,450.00
2023-04-09T04:11:30.702Z,451.00
2023-04-09T04:12:25.806Z,453.00
2023-04-09T04:13:21.075Z,448.00
2023-04-09T04:14:15.971Z,450.00
2023-04-09T04:15:10.918Z,447.00
2023-04-09T04:16:06.050Z,442.00
2023-04-09T04:17:01.018Z,445.00
2023-04-09T04:17:56.163Z,451.00
2023-04-09T04:18:51.420Z,450.00
2023-04-09T04:19:46.163Z,443.00
2023-04-09T04:20:41.250Z,445.00
2023-04-09T04:21:40.591Z,446.00
2023-04-09T04:22:31.421Z,442.00
2023-04-09T04:23:29.156Z,440.00
2023-04-09T04:24:23.968Z,446.00
2023-04-09T04:25:19.132Z,442.00
2023-04-09T04:26:14.084Z,440.00
2023-04-09T04:27:09.159Z,445.00
2023-04-09T04:28:04.268Z,441.00
2023-04-09T04:28:59.254Z,443.00
2023-04-09T04:29:54.221Z,444.00
2023-04-09T04:30:49.293Z,450.00
2023-04-09T04:31:44.340Z,448.00
2023-04-09T04:32:39.412Z,445.00
2023-04-09T04:33:35.578Z,439.00
2023-04-09T04:34:30.713Z,446.00
2023-04-09T04:35:25.885Z,443.00
2023-04-09T04:36:21.198Z,447.00
2023-04-09T04:37:16.475Z,447.00
2023-04-09T04:38:11.979Z,443.00
2023-04-09T04:39:06.971Z,438.00
2023-04-09T04:40:02.326Z,444.00
2023-04-09T04:40:57.498Z,438.00
2023-04-09T04:41:52.870Z,444.00
2023-04-09T04:42:48.354Z,437.00
2023-04-09T04:43:43.481Z,441.00
2023-04-09T04:44:38.662Z,465.00
2023-04-09T04:45:34.060Z,454.00
2023-04-09T04:46:29.110Z,446.00
2023-04-09T04:47:24.243Z,436.00
2023-04-09T04:48:19.213Z,437.00
2023-04-09T04:49:14.338Z,439.00
2023-04-09T04:50:09.387Z,436.00
2023-04-09T04:51:04.416Z,442.00
2023-04-09T04:51:59.394Z,441.00
2023-04-09T04:52:54.445Z,440.00
2023-04-09T04:53:49.403Z,443.00
2023-04-09T04:54:44.540Z,439.00
2023-04-09T04:55:40.125Z,438.00
2023-04-09T04:56:35.132Z,439.00
2023-04-09T04:57:30.270Z,444.00
2023-04-09T04:58:25.362Z,440.00
2023-04-09T04:59:20.315Z,437.00
2023-04-09T05:00:15.410Z,440.00
2023-04-09T05:01:10.486Z,436.00
2023-04-09T05:02:05.707Z,440.00
2023-04-09T05:03:00.766Z,442.00
2023-04-09T05:03:55.970Z,437.00
2023-04-09T05:04:50.903Z,438.00
2023-04-09T05:05:47.120Z,442.00
2023-04-09T05:06:42.461Z,440.00
2023-04-09T05:07:37.785Z,442.00
2023-04-09T05:08:33.021Z,446.00
2023-04-09T05:09:28.449Z,449.00
2023-04-09T05:10:23.721Z,436.00
2023-04-09T05:11:19.304Z,436.00
2023-04-09T05:12:14.412Z,442.00
2023-04-09T05:13:09.843Z,439.00
2023-04-09T05:14:05.081Z,439.00
2023-04-09T05:15:00.685Z,437.00
2023-04-09T05:15:55.825Z,445.00
2023-04-09T05:16:51.492Z,438.00
2023-04-09T05:17:46.622Z,439.00
2023-04-09T05:18:41.891Z,443.00
2023-04-09T05:19:37.168Z,441.00
2023-04-09T05:20:32.455Z,438.00
2023-04-09T05:21:27.935Z,437.00
2023-04-09T05:22:23.234Z,434.00
2023-04-09T05:23:18.385Z,433.00
2023-04-09T05:24:13.850Z,436.00
2023-04-09T05:25:09.130Z,436.00
2023-04-09T05:26:04.560Z,436.00
2023-04-09T05:26:59.951Z,434.00
2023-04-09T05:27:57.390Z,432.00
2023-04-09T05:28:52.981Z,432.00
2023-04-09T05:29:48.006Z,431.00
2023-04-09T05:30:43.425Z,438.00
2023-04-09T05:31:39.163Z,437.00
2023-04-09T05:32:34.362Z,434.00
2023-04-09T05:33:29.680Z,437.00
2023-04-09T05:34:24.997Z,437.00
2023-04-09T05:35:20.051Z,431.00
2023-04-09T05:36:15.167Z,437.00
2023-04-09T05:37:10.560Z,434.00
2023-04-09T05:38:05.585Z,435.00
2023-04-09T05:39:00.687Z,437.00
2023-04-09T05:39:55.726Z,432.00
2023-04-09T05:40:50.846Z,436.00
2023-04-09T05:41:46.071Z,437.00
2023-04-09T05:42:41.049Z,436.00
2023-04-09T05:43:36.101Z,436.00
2023-04-09T05:44:31.157Z,435.00
2023-04-09T05:45:26.209Z,436.00
2023-04-09T05:46:21.348Z,431.00
2023-04-09T05:47:16.494Z,435.00
2023-04-09T05:48:13.477Z,437.00
2023-04-09T05:49:08.551Z,437.00
2023-04-09T05:50:03.615Z,436.00
2023-04-09T05:51:00.488Z,440.00
2023-04-09T05:51:53.886Z,436.00
2023-04-09T05:52:48.849Z,440.00
2023-04-09T05:53:43.963Z,439.00
2023-04-09T05:54:38.982Z,433.00
2023-04-09T05:55:34.048Z,439.00
2023-04-09T05:56:29.120Z,433.00
2023-04-09T05:57:24.298Z,441.00
2023-04-09T05:58:19.256Z,442.00
2023-04-09T05:59:14.300Z,432.00
2023-04-09T06:00:09.370Z,436.00
2023-04-09T06:01:04.417Z,440.00
2023-04-09T06:02:00.146Z,436.00
2023-04-09T06:02:55.300Z,436.00
2023-04-09T06:03:51.052Z,436.00
2023-04-09T06:04:46.193Z,437.00
2023-04-09T06:05:41.592Z,432.00
2023-04-09T06:06:37.120Z,435.00
2023-04-09T06:07:32.436Z,434.00
2023-04-09T06:08:27.780Z,438.00
2023-04-09T06:09:23.307Z,436.00
2023-04-09T06:10:18.707Z,436.00
2023-04-09T06:11:18.169Z,441.00
2023-04-09T06:12:13.583Z,443.00
2023-04-09T06:13:08.973Z,434.00
2023-04-09T06:14:04.354Z,439.00
2023-04-09T06:14:59.747Z,439.00
2023-04-09T06:15:55.273Z,438.00
2023-04-09T06:16:50.708Z,435.00
2023-04-09T06:17:45.951Z,439.00
2023-04-09T06:18:41.348Z,438.00
2023-04-09T06:19:36.702Z,434.00
2023-04-09T06:20:32.377Z,442.00
2023-04-09T06:21:27.968Z,439.00
2023-04-09T06:22:23.262Z,434.00
2023-04-09T06:23:18.606Z,437.00
2023-04-09T06:24:14.002Z,433.00
2023-04-09T06:25:09.088Z,438.00
2023-04-09T06:26:04.233Z,437.00
2023-04-09T06:26:59.367Z,430.00
2023-04-09T06:27:54.454Z,438.00
2023-04-09T06:28:49.405Z,431.00
2023-04-09T06:29:44.421Z,438.00
2023-04-09T06:30:39.500Z,436.00
2023-04-09T06:31:34.887Z,435.00
2023-04-09T06:32:35.508Z,434.00
2023-04-09T06:33:27.704Z,437.00
2023-04-09T06:34:22.578Z,430.00
2023-04-09T06:35:17.957Z,438.00
2023-04-09T06:36:14.119Z,433.00
2023-04-09T06:37:09.262Z,427.00
2023-04-09T06:38:04.607Z,432.00
2023-04-09T06:39:00.448Z,431.00
2023-04-09T06:40:00.904Z,426.00
2023-04-09T06:40:52.278Z,434.00
2023-04-09T06:41:46.731Z,429.00
2023-04-09T06:42:42.380Z,435.00
2023-04-09T06:43:37.667Z,437.00
2023-04-09T06:44:33.125Z,434.00
2023-04-09T06:45:29.317Z,434.00
2023-04-09T06:46:25.009Z,431.00
2023-04-09T06:47:20.494Z,430.00
2023-04-09T06:48:15.899Z,432.00
2023-04-09T06:49:11.244Z,433.00
2023-04-09T06:50:07.108Z,433.00
2023-04-09T06:51:02.520Z,439.00
2023-04-09T06:51:58.505Z,438.00
2023-04-09T06:52:53.695Z,442.00
2023-04-09T06:53:49.103Z,436.00
2023-04-09T06:54:44.725Z,431.00
2023-04-09T06:55:40.243Z,429.00
2023-04-09T06:56:35.842Z,427.00
2023-04-09T06:57:31.899Z,435.00
2023-04-09T06:58:27.309Z,431.00
2023-04-09T06:59:23.244Z,430.00
2023-04-09T07:00:18.622Z,429.00
2023-04-09T07:01:14.315Z,431.00
2023-04-09T07:02:09.955Z,423.00
2023-04-09T07:03:05.466Z,433.00
2023-04-09T07:04:01.274Z,426.00
2023-04-09T07:04:56.552Z,435.00
2023-04-09T07:05:51.903Z,434.00
2023-04-09T07:06:47.759Z,431.00
2023-04-09T07:07:43.119Z,433.00
2023-04-09T07:08:38.634Z,435.00
2023-04-09T07:09:34.908Z,432.00
2023-04-09T07:10:30.346Z,436.00
2023-04-09T07:11:26.339Z,428.00
2023-04-09T07:12:21.668Z,431.00
2023-04-09T07:13:17.049Z,427.00
2023-04-09T07:14:12.869Z,429.00
2023-04-09T07:15:08.212Z,433.00
2023-04-09T07:16:04.256Z,435.00
2023-04-09T07:16:59.475Z,430.00
2023-04-09T07:17:54.896Z,431.00
2023-04-09T07:18:50.696Z,432.00
2023-04-09T07:19:46.210Z,432.00
2023-04-09T07:20:41.604Z,430.00
2023-04-09T07:21:37.865Z,463.00
2023-04-09T07:22:33.271Z,447.00
2023-04-09T07:23:29.092Z,432.00
2023-04-09T07:24:24.465Z,434.00
2023-04-09T07:25:19.856Z,437.00
2023-04-09T07:26:15.813Z,446.00
2023-04-09T07:27:11.083Z,436.00
2023-04-09T07:28:06.870Z,435.00
2023-04-09T07:29:02.282Z,427.00
2023-04-09T07:29:57.851Z,428.00
2023-04-09T07:30:53.057Z,430.00
2023-04-09T07:31:48.444Z,426.00
2023-04-09T07:32:44.253Z,425.00
2023-04-09T07:33:39.629Z,426.00
2023-04-09T07:34:35.561Z,430.00
2023-04-09T07:35:30.796Z,433.00
2023-04-09T07:36:26.534Z,425.00
2023-04-09T07:37:22.204Z,423.00
2023-04-09T07:38:17.683Z,432.00
2023-04-09T07:39:13.067Z,428.00
2023-04-09T07:40:09.429Z,426.00
2023-04-09T07:41:04.948Z,441.00
2023-04-09T07:42:00.745Z,427.00
2023-04-09T07:42:56.113Z,424.00
2023-04-09T07:43:51.652Z,425.00
2023-04-09T07:44:47.368Z,420.00
2023-04-09T07:45:42.872Z,428.00
2023-04-09T07:46:38.480Z,425.00
2023-04-09T07:47:34.008Z,427.00
2023-04-09T07:48:29.213Z,428.00
2023-04-09T07:49:25.943Z,426.00
2023-04-09T07:50:21.022Z,424.00
2023-04-09T07:51:16.298Z,428.00
2023-04-09T07:52:11.484Z,418.00
2023-04-09T07:53:06.432Z,419.00
2023-04-09T07:54:01.413Z,420.00
2023-04-09T07:54:56.553Z,426.00
2023-04-09T07:55:51.681Z,427.00
2023-04-09T07:56:46.667Z,422.00
2023-04-09T07:57:41.721Z,417.00
2023-04-09T07:58:36.872Z,424.00
2023-04-09T07:59:31.883Z,421.00
2023-04-09T08:00:27.122Z,421.00
2023-04-09T08:01:21.997Z,424.00
2023-04-09T08:02:17.180Z,422.00
2023-04-09T08:03:12.348Z,419.00
2023-04-09T08:04:07.527Z,424.00
2023-04-09T08:05:02.404Z,420.00
2023-04-09T08:05:57.434Z,420.00
2023-04-09T08:06:52.372Z,421.00
2023-04-09T08:07:49.737Z,413.00
2023-04-09T08:08:44.795Z,421.00
2023-04-09T08:09:39.933Z,417.00
2023-04-09T08:10:35.109Z,420.00
2023-04-09T08:11:29.950Z,421.00
2023-04-09T08:12:24.912Z,423.00
2023-04-09T08:13:20.152Z,419.00
2023-04-09T08:14:15.129Z,418.00
2023-04-09T08:15:10.279Z,424.00
2023-04-09T08:16:05.532Z,420.00
2023-04-09T08:17:00.657Z,417.00
2023-04-09T08:17:56.051Z,416.00
2023-04-09T08:18:52.097Z,420.00
2023-04-09T08:19:47.332Z,419.00
2023-04-09T08:20:43.050Z,419.00
2023-04-09T08:21:38.569Z,417.00
2023-04-09T08:22:34.059Z,421.00
2023-04-09T08:23:29.824Z,416.00
2023-04-09T08:24:25.353Z,420.00
2023-04-09T08:25:20.734Z,422.00
2023-04-09T08:26:16.416Z,423.00
2023-04-09T08:27:11.774Z,428.00
2023-04-09T08:28:07.364Z,417.00
2023-04-09T08:29:03.497Z,421.00
2023-04-09T08:29:58.938Z,437.00
2023-04-09T08:30:54.791Z,444.00
2023-04-09T08:31:50.363Z,501.00
2023-04-09T08:32:45.961Z,484.00
2023-04-09T08:33:41.665Z,440.00
2023-04-09T08:34:37.086Z,437.00
2023-04-09T08:35:33.112Z,432.00
2023-04-09T08:36:28.304Z,426.00
2023-04-09T08:37:23.862Z,455.00
2023-04-09T08:38:19.678Z,463.00
2023-04-09T08:39:15.079Z,436.00
2023-04-09T08:40:10.599Z,431.00
2023-04-09T08:41:06.830Z,433.00
2023-04-09T08:42:02.257Z,434.00
2023-04-09T08:42:58.130Z,421.00
2023-04-09T08:44:49.427Z,420.00
2023-04-09T08:45:45.018Z,428.00
2023-04-09T08:46:40.563Z,420.00
2023-04-09T08:47:36.047Z,427.00
2023-04-09T08:48:31.546Z,426.00
2023-04-09T08:49:27.257Z,425.00
2023-04-09T08:50:23.103Z,426.00
2023-04-09T08:51:18.643Z,432.00
2023-04-09T08:52:14.104Z,428.00
2023-04-09T08:53:09.513Z,424.00
2023-04-09T08:54:05.467Z,423.00
2023-04-09T08:55:00.746Z,422.00
2023-04-09T08:55:56.163Z,431.00
2023-04-09T08:56:52.430Z,426.00
2023-04-09T08:57:47.870Z,445.00
2023-04-09T08:58:43.730Z,434.00
2023-04-09T08:59:39.255Z,433.00
2023-04-09T09:00:34.878Z,433.00
2023-04-09T09:01:30.583Z,434.00
2023-04-09T09:02:26.013Z,433.00
2023-04-09T09:03:21.851Z,441.00
2023-04-09T09:04:17.101Z,428.00
2023-04-09T09:05:12.430Z,433.00
2023-04-09T09:06:08.051Z,422.00
2023-04-09T09:07:03.549Z,424.00
2023-04-09T09:07:59.140Z,426.00
2023-04-09T09:08:58.850Z,428.00
2023-04-09T09:09:54.217Z,427.00
2023-04-09T09:10:49.458Z,431.00
2023-04-09T09:11:45.141Z,429.00
2023-04-09T09:12:40.579Z,423.00
2023-04-09T09:13:35.957Z,422.00
2023-04-09T09:14:32.500Z,421.00
2023-04-09T09:15:27.766Z,420.00
2023-04-09T09:16:23.560Z,425.00
2023-04-09T09:17:19.049Z,429.00
2023-04-09T09:18:14.511Z,427.00
2023-04-09T09:19:10.267Z,421.00
2023-04-09T09:20:05.686Z,424.00
2023-04-09T09:21:01.370Z,423.00
2023-04-09T09:21:56.776Z,423.00
2023-04-09T09:22:54.576Z,423.00
2023-04-09T09:23:47.746Z,420.00
2023-04-09T09:24:43.300Z,421.00
2023-04-09T09:25:39.271Z,419.00
2023-04-09T09:26:34.676Z,422.00
2023-04-09T09:27:30.116Z,430.00
2023-04-09T09:28:25.812Z,418.00
2023-04-09T09:29:21.588Z,418.00
2023-04-09T09:30:17.081Z,419.00
2023-04-09T09:31:12.415Z,425.00
2023-04-09T09:32:07.757Z,420.00
2023-04-09T09:33:03.478Z,419.00
2023-04-09T09:33:59.008Z,421.00
2023-04-09T09:34:54.306Z,418.00
2023-04-09T09:35:50.833Z,424.00
2023-04-09T09:36:46.190Z,424.00
2023-04-09T09:37:42.184Z,424.00
2023-04-09T09:38:37.614Z,416.00
2023-04-09T09:39:33.079Z,410.00
2023-04-09T09:40:28.915Z,421.00
2023-04-09T09:41:24.365Z,417.00
2023-04-09T09:42:20.334Z,421.00
2023-04-09T09:43:15.721Z,428.00
2023-04-09T09:44:11.191Z,421.00
2023-04-09T09:45:06.696Z,424.00
2023-04-09T09:46:02.229Z,420.00
2023-04-09T09:46:57.612Z,427.00
2023-04-09T09:47:53.982Z,423.00
2023-04-09T09:48:49.658Z,426.00
2023-04-09T09:49:45.566Z,427.00
2023-04-09T09:50:40.954Z,447.00
2023-04-09T09:51:36.421Z,454.00
2023-04-09T09:52:32.088Z,457.00
2023-04-09T09:53:27.543Z,447.00
2023-04-09T09:54:23.618Z,446.00
2023-04-09T09:55:18.766Z,451.00
2023-04-09T09:56:14.283Z,448.00
2023-04-09T09:57:09.893Z,447.00
2023-04-09T09:58:05.459Z,445.00
2023-04-09T09:59:00.982Z,447.00
2023-04-09T09:59:57.097Z,445.00
2023-04-09T10:00:52.655Z,444.00
2023-04-09T10:01:48.631Z,431.00
2023-04-09T10:02:43.951Z,436.00
2023-04-09T10:03:39.301Z,443.00
2023-04-09T10:04:35.306Z,443.00
2023-04-09T10:05:30.560Z,447.00
2023-04-09T10:06:26.240Z,442.00
2023-04-09T10:07:21.662Z,440.00
2023-04-09T10:08:17.265Z,442.00
2023-04-09T10:09:13.387Z,440.00
2023-04-09T10:10:08.433Z,435.00
2023-04-09T10:11:03.981Z,432.00
2023-04-09T10:12:00.071Z,434.00
2023-04-09T10:12:55.459Z,440.00
2023-04-09T10:13:50.956Z,443.00
2023-04-09T10:14:47.324Z,434.00
2023-04-09T10:15:42.726Z,440.00
2023-04-09T10:16:38.581Z,442.00
2023-04-09T10:17:34.112Z,442.00
2023-04-09T10:18:29.816Z,438.00
2023-04-09T10:19:25.644Z,438.00
2023-04-09T10:20:20.879Z,434.00
2023-04-09T10:21:16.641Z,436.00
2023-04-09T10:23:36.429Z,431.00
2023-04-09T10:24:31.820Z,429.00
2023-04-09T10:25:27.156Z,427.00
2023-04-09T10:26:22.554Z,434.00
2023-04-09T10:27:18.059Z,432.00
2023-04-09T10:28:13.446Z,430.00
2023-04-09T10:29:08.876Z,422.00
2023-04-09T10:30:04.485Z,423.00
2023-04-09T10:30:59.809Z,425.00
2023-04-09T10:31:55.200Z,422.00
2023-04-09T10:32:50.651Z,428.00
2023-04-09T10:33:45.992Z,431.00
2023-04-09T10:34:41.337Z,431.00
2023-04-09T10:35:36.708Z,460.00
2023-04-09T10:36:32.152Z,465.00
2023-04-09T10:37:27.552Z,456.00
2023-04-09T10:38:22.907Z,459.00
2023-04-09T10:39:18.327Z,454.00
2023-04-09T10:40:13.891Z,454.00
2023-04-09T10:41:09.115Z,458.00
2023-04-09T10:42:04.586Z,455.00
2023-04-09T10:42:59.966Z,463.00
2023-04-09T10:43:55.359Z,464.00
2023-04-09T10:44:50.785Z,457.00
2023-04-09T10:45:46.063Z,470.00
2023-04-09T10:46:41.577Z,472.00
2023-04-09T10:47:37.064Z,476.00
2023-04-09T10:48:32.381Z,475.00
2023-04-09T10:49:27.787Z,473.00
2023-04-09T10:50:24.013Z,481.00
2023-04-09T10:51:18.640Z,474.00
2023-04-09T10:52:14.137Z,476.00
2023-04-09T10:53:09.639Z,470.00
2023-04-09T10:54:04.883Z,461.00
2023-04-09T10:55:00.360Z,463.00
2023-04-09T10:55:55.729Z,465.00
2023-04-09T10:56:51.028Z,468.00
2023-04-09T10:57:46.404Z,469.00
2023-04-09T10:58:41.943Z,470.00
2023-04-09T10:59:37.440Z,454.00
2023-04-09T11:00:32.827Z,460.00
2023-04-09T11:01:28.254Z,463.00
2023-04-09T11:02:23.927Z,459.00
2023-04-09T11:03:19.428Z,459.00
2023-04-09T11:04:14.768Z,466.00
2023-04-09T11:05:10.128Z,465.00
2023-04-09T11:06:05.521Z,463.00
2023-04-09T11:07:00.858Z,455.00
2023-04-09T11:07:56.131Z,466.00
2023-04-09T11:08:51.752Z,469.00
2023-04-09T11:09:47.096Z,466.00
2023-04-09T11:10:42.278Z,470.00
2023-04-09T11:11:37.612Z,464.00
2023-04-09T11:12:32.965Z,464.00
2023-04-09T11:13:28.641Z,469.00
2023-04-09T11:14:24.304Z,459.00
2023-04-09T11:15:19.421Z,459.00
2023-04-09T11:16:24.816Z,461.00
2023-04-09T11:17:11.386Z,443.00
2023-04-09T11:18:05.712Z,438.00
2023-04-09T11:19:01.125Z,438.00
2023-04-09T11:19:56.698Z,438.00
2023-04-09T11:20:52.030Z,441.00
2023-04-09T11:21:47.419Z,449.00
2023-04-09T11:22:42.729Z,460.00
2023-04-09T11:23:38.108Z,458.00
2023-04-09T11:24:33.686Z,459.00
2023-04-09T11:25:29.051Z,453.00
2023-04-09T11:26:24.593Z,453.00
2023-04-09T11:27:19.841Z,461.00
2023-04-09T11:28:15.209Z,460.00
2023-04-09T11:29:10.687Z,460.00
2023-04-09T11:30:06.404Z,458.00
2023-04-09T11:31:01.608Z,461.00
2023-04-09T11:31:57.296Z,456.00
2023-04-09T11:32:52.711Z,449.00
2023-04-09T11:33:48.127Z,447.00